Weston, Connecticut
Current Conditions -  °F | °C
As of 9:53 AM on Sunday 21 Dec 2014 (Local Time) from KDXR Reporting Station
Light Snow Light Snow  
Wind Chill: 32°   Ceiling: 900
Heat Index: 32°   Visibility: 1.5mi
Dew Point: 27°   Wind: 3mph
Humidity: 82%   Direction: 360°N
Pressure: 30.3"   Gusts: NA
Location:  41.2°N, 73.38°W
Report Text: KDXR 211453Z 36003KT 1 1/2SM -SN BKN009 OVC018 00/M03 A3030 RMK AO2 SNB38 SLP264 P0000 60000 T00001028 52002
Loading
Personal Weather Stations






























Interactive Weather Map New forecast layout! Learn more

10-Day Weather Forecast

Advertisements
Track Severe Weather on mobile